sensor_id;sensor_type;location;lat;lon;timestamp;P1;durP1;ratioP1;P2;durP2;ratioP2
38911;SDS011;28444;48.056;14.408;2023-05-20T00:02:40;14.38;;;10.50;;
38911;SDS011;28444;48.056;14.408;2023-05-20T00:05:27;14.88;;;11.25;;
38911;SDS011;28444;48.056;14.408;2023-05-20T00:08:14;13.88;;;10.68;;
38911;SDS011;28444;48.056;14.408;2023-05-20T00:11:00;15.68;;;11.27;;
38911;SDS011;28444;48.056;14.408;2023-05-20T00:13:47;16.38;;;11.15;;
38911;SDS011;28444;48.056;14.408;2023-05-20T00:16:34;15.55;;;10.88;;
38911;SDS011;28444;48.056;14.408;2023-05-20T00:19:22;15.85;;;11.10;;
38911;SDS011;28444;48.056;14.408;2023-05-20T00:22:09;21.33;;;11.82;;
38911;SDS011;28444;48.056;14.408;2023-05-20T00:24:56;14.50;;;10.70;;
38911;SDS011;28444;48.056;14.408;2023-05-20T00:27:43;15.93;;;11.93;;
38911;SDS011;28444;48.056;14.408;2023-05-20T00:30:30;16.85;;;11.05;;
38911;SDS011;28444;48.056;14.408;2023-05-20T00:33:17;16.13;;;11.07;;
38911;SDS011;28444;48.056;14.408;2023-05-20T00:36:04;13.80;;;10.65;;
38911;SDS011;28444;48.056;14.408;2023-05-20T00:38:51;14.98;;;11.38;;
38911;SDS011;28444;48.056;14.408;2023-05-20T00:41:38;13.45;;;10.55;;
38911;SDS011;28444;48.056;14.408;2023-05-20T00:44:25;16.10;;;10.73;;
38911;SDS011;28444;48.056;14.408;2023-05-20T00:47:13;16.33;;;11.52;;
38911;SDS011;28444;48.056;14.408;2023-05-20T00:50:01;13.43;;;10.77;;
38911;SDS011;28444;48.056;14.408;2023-05-20T00:52:49;14.20;;;10.63;;
38911;SDS011;28444;48.056;14.408;2023-05-20T00:55:37;14.77;;;10.30;;
38911;SDS011;28444;48.056;14.408;2023-05-20T00:58:24;14.95;;;9.98;;
38911;SDS011;28444;48.056;14.408;2023-05-20T01:01:11;13.45;;;10.00;;
38911;SDS011;28444;48.056;14.408;2023-05-20T01:03:58;16.50;;;9.88;;
38911;SDS011;28444;48.056;14.408;2023-05-20T01:06:45;20.17;;;11.32;;
38911;SDS011;28444;48.056;14.408;2023-05-20T01:09:33;16.10;;;11.32;;
38911;SDS011;28444;48.056;14.408;2023-05-20T01:12:27;14.40;;;10.13;;
38911;SDS011;28444;48.056;14.408;2023-05-20T01:15:21;14.85;;;10.90;;
38911;SDS011;28444;48.056;14.408;2023-05-20T01:18:10;16.70;;;11.77;;
38911;SDS011;28444;48.056;14.408;2023-05-20T01:21:04;18.85;;;11.98;;
38911;SDS011;28444;48.056;14.408;2023-05-20T01:23:53;17.17;;;11.98;;
38911;SDS011;28444;48.056;14.408;2023-05-20T01:26:40;19.55;;;11.80;;
38911;SDS011;28444;48.056;14.408;2023-05-20T01:29:27;15.32;;;12.40;;
38911;SDS011;28444;48.056;14.408;2023-05-20T01:32:25;18.42;;;12.55;;
38911;SDS011;28444;48.056;14.408;2023-05-20T01:35:18;16.88;;;12.13;;
38911;SDS011;28444;48.056;14.408;2023-05-20T01:38:12;19.23;;;12.82;;
38911;SDS011;28444;48.056;14.408;2023-05-20T01:41:01;18.35;;;13.88;;
38911;SDS011;28444;48.056;14.408;2023-05-20T01:43:51;18.15;;;13.93;;
38911;SDS011;28444;48.056;14.408;2023-05-20T01:46:38;18.15;;;12.65;;
38911;SDS011;28444;48.056;14.408;2023-05-20T01:49:25;20.67;;;14.13;;
38911;SDS011;28444;48.056;14.408;2023-05-20T01:52:12;23.70;;;15.23;;
38911;SDS011;28444;48.056;14.408;2023-05-20T01:54:59;24.55;;;16.38;;
38911;SDS011;28444;48.056;14.408;2023-05-20T01:57:46;24.77;;;15.73;;
38911;SDS011;28444;48.056;14.408;2023-05-20T02:00:33;24.95;;;15.90;;
38911;SDS011;28444;48.056;14.408;2023-05-20T02:03:21;21.88;;;14.93;;
38911;SDS011;28444;48.056;14.408;2023-05-20T02:06:08;23.65;;;17.02;;
38911;SDS011;28444;48.056;14.408;2023-05-20T02:08:55;26.13;;;17.20;;
38911;SDS011;28444;48.056;14.408;2023-05-20T02:11:42;24.02;;;16.30;;
38911;SDS011;28444;48.056;14.408;2023-05-20T02:14:29;23.58;;;17.65;;
38911;SDS011;28444;48.056;14.408;2023-05-20T02:17:16;25.90;;;18.60;;
38911;SDS011;28444;48.056;14.408;2023-05-20T02:20:03;24.73;;;17.23;;
38911;SDS011;28444;48.056;14.408;2023-05-20T02:22:53;28.95;;;18.45;;
38911;SDS011;28444;48.056;14.408;2023-05-20T02:25:40;28.33;;;18.85;;
38911;SDS011;28444;48.056;14.408;2023-05-20T02:28:27;24.63;;;18.58;;
38911;SDS011;28444;48.056;14.408;2023-05-20T02:31:14;31.80;;;20.70;;
38911;SDS011;28444;48.056;14.408;2023-05-20T02:34:01;31.45;;;21.00;;
38911;SDS011;28444;48.056;14.408;2023-05-20T02:36:49;34.22;;;22.50;;
38911;SDS011;28444;48.056;14.408;2023-05-20T02:39:37;44.45;;;25.52;;
38911;SDS011;28444;48.056;14.408;2023-05-20T02:42:24;34.60;;;22.77;;
38911;SDS011;28444;48.056;14.408;2023-05-20T02:45:11;37.38;;;25.50;;
38911;SDS011;28444;48.056;14.408;2023-05-20T02:47:58;39.50;;;24.50;;
38911;SDS011;28444;48.056;14.408;2023-05-20T02:50:45;34.25;;;23.52;;
38911;SDS011;28444;48.056;14.408;2023-05-20T02:53:32;43.50;;;24.75;;
38911;SDS011;28444;48.056;14.408;2023-05-20T02:56:19;37.90;;;24.27;;
38911;SDS011;28444;48.056;14.408;2023-05-20T02:59:06;36.70;;;23.58;;
38911;SDS011;28444;48.056;14.408;2023-05-20T03:01:54;37.90;;;24.13;;
38911;SDS011;28444;48.056;14.408;2023-05-20T03:04:41;45.20;;;25.52;;
38911;SDS011;28444;48.056;14.408;2023-05-20T03:07:28;37.25;;;24.05;;
38911;SDS011;28444;48.056;14.408;2023-05-20T03:10:15;37.65;;;24.38;;
38911;SDS011;28444;48.056;14.408;2023-05-20T03:13:06;39.05;;;24.10;;
38911;SDS011;28444;48.056;14.408;2023-05-20T03:15:54;56.42;;;26.42;;
38911;SDS011;28444;48.056;14.408;2023-05-20T03:18:41;39.70;;;25.58;;
38911;SDS011;28444;48.056;14.408;2023-05-20T03:21:28;41.63;;;26.90;;
38911;SDS011;28444;48.056;14.408;2023-05-20T03:24:17;38.67;;;26.80;;
38911;SDS011;28444;48.056;14.408;2023-05-20T03:27:04;40.90;;;27.25;;
38911;SDS011;28444;48.056;14.408;2023-05-20T03:29:51;42.45;;;29.08;;
38911;SDS011;28444;48.056;14.408;2023-05-20T03:32:40;45.58;;;27.23;;
38911;SDS011;28444;48.056;14.408;2023-05-20T03:35:28;46.60;;;28.35;;
38911;SDS011;28444;48.056;14.408;2023-05-20T03:38:15;40.78;;;27.00;;
38911;SDS011;28444;48.056;14.408;2023-05-20T03:41:02;46.92;;;27.60;;
38911;SDS011;28444;48.056;14.408;2023-05-20T03:43:49;43.00;;;27.63;;
38911;SDS011;28444;48.056;14.408;2023-05-20T03:46:36;46.03;;;28.35;;
38911;SDS011;28444;48.056;14.408;2023-05-20T03:49:22;46.22;;;27.33;;
38911;SDS011;28444;48.056;14.408;2023-05-20T03:52:09;41.50;;;27.48;;
38911;SDS011;28444;48.056;14.408;2023-05-20T03:54:56;41.25;;;27.33;;
38911;SDS011;28444;48.056;14.408;2023-05-20T03:57:43;45.28;;;27.20;;
38911;SDS011;28444;48.056;14.408;2023-05-20T04:00:30;40.33;;;26.77;;
38911;SDS011;28444;48.056;14.408;2023-05-20T04:03:17;42.40;;;26.98;;
38911;SDS011;28444;48.056;14.408;2023-05-20T04:06:04;42.03;;;25.85;;
38911;SDS011;28444;48.056;14.408;2023-05-20T04:08:51;43.03;;;27.92;;
38911;SDS011;28444;48.056;14.408;2023-05-20T04:11:38;39.78;;;25.60;;
38911;SDS011;28444;48.056;14.408;2023-05-20T04:14:25;44.30;;;27.27;;
38911;SDS011;28444;48.056;14.408;2023-05-20T04:17:12;42.17;;;26.98;;
38911;SDS011;28444;48.056;14.408;2023-05-20T04:19:59;39.95;;;25.90;;
38911;SDS011;28444;48.056;14.408;2023-05-20T04:22:46;39.55;;;26.02;;
38911;SDS011;28444;48.056;14.408;2023-05-20T04:25:33;38.28;;;24.13;;
38911;SDS011;28444;48.056;14.408;2023-05-20T04:28:22;38.28;;;24.67;;
38911;SDS011;28444;48.056;14.408;2023-05-20T04:31:09;37.10;;;24.90;;
38911;SDS011;28444;48.056;14.408;2023-05-20T04:33:56;48.58;;;26.88;;
38911;SDS011;28444;48.056;14.408;2023-05-20T04:36:43;44.65;;;26.67;;
38911;SDS011;28444;48.056;14.408;2023-05-20T04:39:31;46.95;;;30.00;;
38911;SDS011;28444;48.056;14.408;2023-05-20T04:42:18;43.88;;;26.77;;
38911;SDS011;28444;48.056;14.408;2023-05-20T04:45:07;41.88;;;25.73;;
38911;SDS011;28444;48.056;14.408;2023-05-20T04:47:54;41.28;;;28.15;;
38911;SDS011;28444;48.056;14.408;2023-05-20T04:50:41;75.47;;;45.25;;
38911;SDS011;28444;48.056;14.408;2023-05-20T04:53:28;51.70;;;29.50;;
38911;SDS011;28444;48.056;14.408;2023-05-20T04:56:19;45.67;;;30.33;;
38911;SDS011;28444;48.056;14.408;2023-05-20T04:59:06;38.17;;;24.25;;
38911;SDS011;28444;48.056;14.408;2023-05-20T05:01:53;41.97;;;26.48;;
38911;SDS011;28444;48.056;14.408;2023-05-20T05:04:40;48.15;;;31.35;;
38911;SDS011;28444;48.056;14.408;2023-05-20T05:07:27;42.13;;;24.80;;
38911;SDS011;28444;48.056;14.408;2023-05-20T05:10:14;34.30;;;22.98;;
38911;SDS011;28444;48.056;14.408;2023-05-20T05:13:01;38.92;;;23.95;;
38911;SDS011;28444;48.056;14.408;2023-05-20T05:15:56;35.80;;;23.23;;
38911;SDS011;28444;48.056;14.408;2023-05-20T05:18:43;37.50;;;22.70;;
38911;SDS011;28444;48.056;14.408;2023-05-20T05:21:31;37.53;;;22.63;;
38911;SDS011;28444;48.056;14.408;2023-05-20T05:24:17;46.33;;;22.33;;
38911;SDS011;28444;48.056;14.408;2023-05-20T05:27:04;36.25;;;22.55;;
38911;SDS011;28444;48.056;14.408;2023-05-20T05:29:51;31.23;;;22.27;;
38911;SDS011;28444;48.056;14.408;2023-05-20T05:32:38;40.13;;;22.92;;
38911;SDS011;28444;48.056;14.408;2023-05-20T05:35:25;33.10;;;20.60;;
38911;SDS011;28444;48.056;14.408;2023-05-20T05:38:12;36.50;;;22.83;;
38911;SDS011;28444;48.056;14.408;2023-05-20T05:40:59;32.35;;;21.38;;
38911;SDS011;28444;48.056;14.408;2023-05-20T05:43:46;43.40;;;28.95;;
38911;SDS011;28444;48.056;14.408;2023-05-20T05:46:33;33.42;;;21.42;;
38911;SDS011;28444;48.056;14.408;2023-05-20T05:49:20;31.88;;;20.67;;
38911;SDS011;28444;48.056;14.408;2023-05-20T05:52:06;33.85;;;20.13;;
38911;SDS011;28444;48.056;14.408;2023-05-20T05:54:53;34.38;;;22.63;;
38911;SDS011;28444;48.056;14.408;2023-05-20T05:57:41;31.67;;;21.02;;
38911;SDS011;28444;48.056;14.408;2023-05-20T06:00:28;42.03;;;22.48;;
38911;SDS011;28444;48.056;14.408;2023-05-20T06:03:15;37.03;;;22.75;;
38911;SDS011;28444;48.056;14.408;2023-05-20T06:06:02;36.75;;;24.38;;
38911;SDS011;28444;48.056;14.408;2023-05-20T06:08:49;36.80;;;23.63;;
38911;SDS011;28444;48.056;14.408;2023-05-20T06:11:36;37.35;;;23.50;;
38911;SDS011;28444;48.056;14.408;2023-05-20T06:14:23;36.38;;;23.65;;
38911;SDS011;28444;48.056;14.408;2023-05-20T06:17:10;32.80;;;21.85;;
38911;SDS011;28444;48.056;14.408;2023-05-20T06:19:57;38.88;;;23.38;;
38911;SDS011;28444;48.056;14.408;2023-05-20T06:22:44;40.88;;;23.85;;
38911;SDS011;28444;48.056;14.408;2023-05-20T06:25:30;38.85;;;24.17;;
38911;SDS011;28444;48.056;14.408;2023-05-20T06:28:18;39.25;;;24.33;;
38911;SDS011;28444;48.056;14.408;2023-05-20T06:31:06;41.58;;;23.60;;
38911;SDS011;28444;48.056;14.408;2023-05-20T06:33:53;44.22;;;24.75;;
38911;SDS011;28444;48.056;14.408;2023-05-20T06:36:39;36.03;;;22.77;;
38911;SDS011;28444;48.056;14.408;2023-05-20T06:39:26;42.63;;;25.48;;
38911;SDS011;28444;48.056;14.408;2023-05-20T06:42:13;43.03;;;26.00;;
38911;SDS011;28444;48.056;14.408;2023-05-20T06:45:00;44.28;;;26.63;;
38911;SDS011;28444;48.056;14.408;2023-05-20T06:47:47;46.55;;;26.40;;
38911;SDS011;28444;48.056;14.408;2023-05-20T06:50:35;51.85;;;27.35;;
38911;SDS011;28444;48.056;14.408;2023-05-20T06:53:22;37.95;;;24.17;;
38911;SDS011;28444;48.056;14.408;2023-05-20T06:56:09;47.42;;;26.98;;
38911;SDS011;28444;48.056;14.408;2023-05-20T06:58:56;42.35;;;25.50;;
38911;SDS011;28444;48.056;14.408;2023-05-20T07:01:43;50.70;;;28.55;;
38911;SDS011;28444;48.056;14.408;2023-05-20T07:04:30;44.85;;;25.55;;
38911;SDS011;28444;48.056;14.408;2023-05-20T07:07:17;40.80;;;25.40;;
38911;SDS011;28444;48.056;14.408;2023-05-20T07:10:04;39.67;;;24.77;;
38911;SDS011;28444;48.056;14.408;2023-05-20T07:12:51;41.78;;;25.42;;
38911;SDS011;28444;48.056;14.408;2023-05-20T07:15:39;39.20;;;24.25;;
38911;SDS011;28444;48.056;14.408;2023-05-20T07:18:26;43.33;;;24.88;;
38911;SDS011;28444;48.056;14.408;2023-05-20T07:21:13;41.13;;;24.88;;
38911;SDS011;28444;48.056;14.408;2023-05-20T07:24:00;45.88;;;24.70;;
38911;SDS011;28444;48.056;14.408;2023-05-20T07:26:47;40.45;;;25.30;;
38911;SDS011;28444;48.056;14.408;2023-05-20T07:29:34;39.60;;;24.80;;
38911;SDS011;28444;48.056;14.408;2023-05-20T07:32:22;46.30;;;26.30;;
38911;SDS011;28444;48.056;14.408;2023-05-20T07:35:09;45.22;;;26.17;;
38911;SDS011;28444;48.056;14.408;2023-05-20T07:37:56;44.70;;;25.48;;
38911;SDS011;28444;48.056;14.408;2023-05-20T07:40:43;42.03;;;26.08;;
38911;SDS011;28444;48.056;14.408;2023-05-20T07:43:30;47.17;;;27.75;;
38911;SDS011;28444;48.056;14.408;2023-05-20T07:46:17;45.65;;;26.02;;
38911;SDS011;28444;48.056;14.408;2023-05-20T07:49:06;46.45;;;27.05;;
38911;SDS011;28444;48.056;14.408;2023-05-20T07:51:53;43.95;;;28.08;;
38911;SDS011;28444;48.056;14.408;2023-05-20T07:54:40;42.38;;;26.80;;
38911;SDS011;28444;48.056;14.408;2023-05-20T07:57:27;41.47;;;26.60;;
38911;SDS011;28444;48.056;14.408;2023-05-20T08:00:14;44.65;;;27.75;;
38911;SDS011;28444;48.056;14.408;2023-05-20T08:03:01;40.95;;;24.35;;
38911;SDS011;28444;48.056;14.408;2023-05-20T08:05:48;41.05;;;26.25;;
38911;SDS011;28444;48.056;14.408;2023-05-20T08:08:35;43.38;;;26.85;;
38911;SDS011;28444;48.056;14.408;2023-05-20T08:11:22;39.28;;;25.02;;
38911;SDS011;28444;48.056;14.408;2023-05-20T08:14:09;39.10;;;24.77;;
38911;SDS011;28444;48.056;14.408;2023-05-20T08:16:56;36.25;;;22.70;;
38911;SDS011;28444;48.056;14.408;2023-05-20T08:19:43;35.28;;;22.90;;
38911;SDS011;28444;48.056;14.408;2023-05-20T08:22:30;37.75;;;21.90;;
38911;SDS011;28444;48.056;14.408;2023-05-20T08:25:17;42.88;;;22.77;;
38911;SDS011;28444;48.056;14.408;2023-05-20T08:28:05;33.92;;;22.45;;
38911;SDS011;28444;48.056;14.408;2023-05-20T08:30:52;37.40;;;24.30;;
38911;SDS011;28444;48.056;14.408;2023-05-20T08:33:40;36.30;;;22.25;;
38911;SDS011;28444;48.056;14.408;2023-05-20T08:36:27;30.88;;;21.90;;
38911;SDS011;28444;48.056;14.408;2023-05-20T08:39:14;33.67;;;21.42;;
38911;SDS011;28444;48.056;14.408;2023-05-20T08:42:01;33.00;;;20.92;;
38911;SDS011;28444;48.056;14.408;2023-05-20T08:44:51;35.53;;;20.50;;
38911;SDS011;28444;48.056;14.408;2023-05-20T08:47:40;31.45;;;20.38;;
38911;SDS011;28444;48.056;14.408;2023-05-20T08:50:28;34.42;;;20.75;;
38911;SDS011;28444;48.056;14.408;2023-05-20T08:53:16;30.75;;;19.98;;
38911;SDS011;28444;48.056;14.408;2023-05-20T08:56:04;30.65;;;20.98;;
38911;SDS011;28444;48.056;14.408;2023-05-20T08:58:52;30.80;;;19.92;;
38911;SDS011;28444;48.056;14.408;2023-05-20T09:01:40;31.50;;;18.27;;
38911;SDS011;28444;48.056;14.408;2023-05-20T09:04:31;30.77;;;19.73;;
38911;SDS011;28444;48.056;14.408;2023-05-20T09:07:27;27.83;;;18.45;;
38911;SDS011;28444;48.056;14.408;2023-05-20T09:10:14;30.77;;;19.15;;
38911;SDS011;28444;48.056;14.408;2023-05-20T09:13:02;29.20;;;18.90;;
38911;SDS011;28444;48.056;14.408;2023-05-20T09:15:50;27.50;;;19.17;;
38911;SDS011;28444;48.056;14.408;2023-05-20T09:18:37;29.35;;;19.27;;
38911;SDS011;28444;48.056;14.408;2023-05-20T09:21:26;30.25;;;18.85;;
38911;SDS011;28444;48.056;14.408;2023-05-20T09:24:19;31.10;;;18.63;;
38911;SDS011;28444;48.056;14.408;2023-05-20T09:27:09;30.85;;;17.83;;
38911;SDS011;28444;48.056;14.408;2023-05-20T09:29:56;30.45;;;19.42;;
38911;SDS011;28444;48.056;14.408;2023-05-20T09:32:43;28.95;;;18.08;;
38911;SDS011;28444;48.056;14.408;2023-05-20T09:35:33;25.85;;;15.88;;
38911;SDS011;28444;48.056;14.408;2023-05-20T09:38:22;29.48;;;16.80;;
38911;SDS011;28444;48.056;14.408;2023-05-20T09:41:12;22.85;;;17.15;;
38911;SDS011;28444;48.056;14.408;2023-05-20T09:44:00;26.10;;;18.60;;
38911;SDS011;28444;48.056;14.408;2023-05-20T09:46:49;30.13;;;19.75;;
38911;SDS011;28444;48.056;14.408;2023-05-20T09:49:38;30.70;;;19.73;;
38911;SDS011;28444;48.056;14.408;2023-05-20T09:52:27;26.20;;;18.70;;
38911;SDS011;28444;48.056;14.408;2023-05-20T09:55:15;31.50;;;17.75;;
38911;SDS011;28444;48.056;14.408;2023-05-20T09:58:04;24.70;;;18.23;;
38911;SDS011;28444;48.056;14.408;2023-05-20T10:00:52;29.15;;;18.20;;
38911;SDS011;28444;48.056;14.408;2023-05-20T10:03:39;31.45;;;16.75;;
38911;SDS011;28444;48.056;14.408;2023-05-20T10:22:14;25.58;;;17.40;;
38911;SDS011;28444;48.056;14.408;2023-05-20T10:25:22;32.58;;;16.83;;
38911;SDS011;28444;48.056;14.408;2023-05-20T10:28:13;25.58;;;17.42;;
38911;SDS011;28444;48.056;14.408;2023-05-20T10:31:00;25.05;;;16.38;;
38911;SDS011;28444;48.056;14.408;2023-05-20T10:33:47;38.78;;;19.10;;
38911;SDS011;28444;48.056;14.408;2023-05-20T10:36:37;33.80;;;19.88;;
38911;SDS011;28444;48.056;14.408;2023-05-20T10:39:28;25.55;;;14.73;;
38911;SDS011;28444;48.056;14.408;2023-05-20T10:42:16;25.88;;;15.45;;
38911;SDS011;28444;48.056;14.408;2023-05-20T10:45:23;23.58;;;15.52;;
38911;SDS011;28444;48.056;14.408;2023-05-20T10:48:18;25.38;;;15.48;;
38911;SDS011;28444;48.056;14.408;2023-05-20T10:51:16;25.23;;;15.68;;
38911;SDS011;28444;48.056;14.408;2023-05-20T10:54:03;21.92;;;15.43;;
38911;SDS011;28444;48.056;14.408;2023-05-20T10:56:51;24.88;;;15.15;;
38911;SDS011;28444;48.056;14.408;2023-05-20T10:59:39;22.52;;;15.98;;
38911;SDS011;28444;48.056;14.408;2023-05-20T11:02:27;20.77;;;16.35;;
38911;SDS011;28444;48.056;14.408;2023-05-20T11:05:15;25.08;;;16.08;;
38911;SDS011;28444;48.056;14.408;2023-05-20T11:08:03;23.85;;;16.90;;
38911;SDS011;28444;48.056;14.408;2023-05-20T11:11:05;30.88;;;16.58;;
38911;SDS011;28444;48.056;14.408;2023-05-20T11:13:55;23.10;;;16.38;;
38911;SDS011;28444;48.056;14.408;2023-05-20T11:16:43;25.42;;;17.52;;
38911;SDS011;28444;48.056;14.408;2023-05-20T11:19:30;22.10;;;16.63;;
38911;SDS011;28444;48.056;14.408;2023-05-20T11:22:17;26.85;;;16.88;;
38911;SDS011;28444;48.056;14.408;2023-05-20T11:25:04;21.50;;;15.10;;
38911;SDS011;28444;48.056;14.408;2023-05-20T11:27:52;22.20;;;15.68;;
38911;SDS011;28444;48.056;14.408;2023-05-20T11:30:42;22.48;;;14.88;;
38911;SDS011;28444;48.056;14.408;2023-05-20T11:33:29;23.45;;;14.88;;
38911;SDS011;28444;48.056;14.408;2023-05-20T11:36:16;41.92;;;17.48;;
38911;SDS011;28444;48.056;14.408;2023-05-20T11:39:13;27.67;;;15.10;;
38911;SDS011;28444;48.056;14.408;2023-05-20T11:42:00;28.42;;;14.57;;
38911;SDS011;28444;48.056;14.408;2023-05-20T11:44:49;23.15;;;15.18;;
38911;SDS011;28444;48.056;14.408;2023-05-20T11:47:35;30.38;;;16.70;;
38911;SDS011;28444;48.056;14.408;2023-05-20T11:50:22;28.17;;;15.45;;
38911;SDS011;28444;48.056;14.408;2023-05-20T11:53:11;19.70;;;13.77;;
38911;SDS011;28444;48.056;14.408;2023-05-20T11:58:49;27.15;;;14.80;;
38911;SDS011;28444;48.056;14.408;2023-05-20T12:01:37;23.55;;;14.55;;
38911;SDS011;28444;48.056;14.408;2023-05-20T12:04:28;19.77;;;15.25;;
38911;SDS011;28444;48.056;14.408;2023-05-20T12:07:15;28.50;;;15.20;;
38911;SDS011;28444;48.056;14.408;2023-05-20T12:10:02;29.08;;;16.85;;
38911;SDS011;28444;48.056;14.408;2023-05-20T12:12:49;21.67;;;15.57;;
38911;SDS011;28444;48.056;14.408;2023-05-20T12:15:36;24.58;;;16.38;;
38911;SDS011;28444;48.056;14.408;2023-05-20T12:18:24;19.85;;;13.85;;
38911;SDS011;28444;48.056;14.408;2023-05-20T12:21:10;19.48;;;13.55;;
38911;SDS011;28444;48.056;14.408;2023-05-20T12:23:58;18.83;;;14.27;;
38911;SDS011;28444;48.056;14.408;2023-05-20T12:26:45;21.83;;;14.38;;
38911;SDS011;28444;48.056;14.408;2023-05-20T12:29:32;19.50;;;13.48;;
38911;SDS011;28444;48.056;14.408;2023-05-20T12:32:19;20.95;;;14.45;;
38911;SDS011;28444;48.056;14.408;2023-05-20T12:35:06;20.73;;;13.73;;
38911;SDS011;28444;48.056;14.408;2023-05-20T12:37:54;20.73;;;14.13;;
38911;SDS011;28444;48.056;14.408;2023-05-20T12:40:41;20.67;;;14.18;;
38911;SDS011;28444;48.056;14.408;2023-05-20T12:43:28;29.65;;;15.10;;
38911;SDS011;28444;48.056;14.408;2023-05-20T12:46:15;24.42;;;15.55;;
38911;SDS011;28444;48.056;14.408;2023-05-20T12:49:02;22.65;;;15.00;;
38911;SDS011;28444;48.056;14.408;2023-05-20T12:51:49;24.10;;;14.98;;
38911;SDS011;28444;48.056;14.408;2023-05-20T12:54:36;19.65;;;15.00;;
38911;SDS011;28444;48.056;14.408;2023-05-20T12:57:23;17.83;;;13.40;;
38911;SDS011;28444;48.056;14.408;2023-05-20T13:00:11;18.77;;;13.40;;
38911;SDS011;28444;48.056;14.408;2023-05-20T13:02:59;24.98;;;14.70;;
38911;SDS011;28444;48.056;14.408;2023-05-20T13:05:45;19.00;;;13.85;;
38911;SDS011;28444;48.056;14.408;2023-05-20T13:08:32;19.40;;;14.77;;
38911;SDS011;28444;48.056;14.408;2023-05-20T13:11:19;20.35;;;13.27;;
38911;SDS011;28444;48.056;14.408;2023-05-20T13:14:07;25.50;;;15.15;;
38911;SDS011;28444;48.056;14.408;2023-05-20T13:16:54;21.90;;;14.85;;
38911;SDS011;28444;48.056;14.408;2023-05-20T13:19:41;18.27;;;13.48;;
38911;SDS011;28444;48.056;14.408;2023-05-20T13:22:29;19.05;;;13.98;;
38911;SDS011;28444;48.056;14.408;2023-05-20T13:25:17;19.98;;;13.63;;
38911;SDS011;28444;48.056;14.408;2023-05-20T13:28:04;24.92;;;15.10;;
38911;SDS011;28444;48.056;14.408;2023-05-20T13:30:51;22.15;;;15.73;;
38911;SDS011;28444;48.056;14.408;2023-05-20T13:33:38;23.35;;;15.50;;
38911;SDS011;28444;48.056;14.408;2023-05-20T13:36:25;27.67;;;14.95;;
38911;SDS011;28444;48.056;14.408;2023-05-20T13:39:13;21.45;;;15.88;;
38911;SDS011;28444;48.056;14.408;2023-05-20T13:42:01;29.45;;;15.95;;
38911;SDS011;28444;48.056;14.408;2023-05-20T13:44:48;26.25;;;18.08;;
38911;SDS011;28444;48.056;14.408;2023-05-20T13:47:35;31.05;;;16.92;;
38911;SDS011;28444;48.056;14.408;2023-05-20T13:50:22;24.00;;;16.67;;
38911;SDS011;28444;48.056;14.408;2023-05-20T13:53:09;22.58;;;15.85;;
38911;SDS011;28444;48.056;14.408;2023-05-20T13:55:58;27.15;;;15.77;;
38911;SDS011;28444;48.056;14.408;2023-05-20T13:58:45;25.38;;;17.55;;
38911;SDS011;28444;48.056;14.408;2023-05-20T14:01:32;24.08;;;16.55;;
38911;SDS011;28444;48.056;14.408;2023-05-20T14:04:19;22.88;;;17.02;;
38911;SDS011;28444;48.056;14.408;2023-05-20T14:07:07;22.00;;;16.63;;
38911;SDS011;28444;48.056;14.408;2023-05-20T14:09:55;25.70;;;16.67;;
38911;SDS011;28444;48.056;14.408;2023-05-20T14:12:43;24.63;;;16.90;;
38911;SDS011;28444;48.056;14.408;2023-05-20T14:15:34;22.15;;;15.43;;
38911;SDS011;28444;48.056;14.408;2023-05-20T14:18:21;25.83;;;15.82;;
38911;SDS011;28444;48.056;14.408;2023-05-20T14:21:08;22.30;;;14.57;;
38911;SDS011;28444;48.056;14.408;2023-05-20T14:23:54;22.83;;;15.30;;
38911;SDS011;28444;48.056;14.408;2023-05-20T14:26:41;22.33;;;15.60;;
38911;SDS011;28444;48.056;14.408;2023-05-20T14:29:28;25.90;;;15.55;;
38911;SDS011;28444;48.056;14.408;2023-05-20T14:32:15;24.17;;;13.75;;
38911;SDS011;28444;48.056;14.408;2023-05-20T14:35:03;17.70;;;13.50;;
38911;SDS011;28444;48.056;14.408;2023-05-20T14:37:51;23.25;;;14.02;;
38911;SDS011;28444;48.056;14.408;2023-05-20T14:40:38;25.25;;;13.27;;
38911;SDS011;28444;48.056;14.408;2023-05-20T14:43:25;30.67;;;14.15;;
38911;SDS011;28444;48.056;14.408;2023-05-20T14:46:12;20.17;;;12.75;;
38911;SDS011;28444;48.056;14.408;2023-05-20T14:48:59;20.52;;;12.05;;
38911;SDS011;28444;48.056;14.408;2023-05-20T14:51:46;17.83;;;11.30;;
38911;SDS011;28444;48.056;14.408;2023-05-20T14:54:33;24.55;;;12.73;;
38911;SDS011;28444;48.056;14.408;2023-05-20T14:57:20;19.08;;;11.90;;
38911;SDS011;28444;48.056;14.408;2023-05-20T15:00:08;16.70;;;12.63;;
38911;SDS011;28444;48.056;14.408;2023-05-20T15:02:56;22.38;;;12.18;;
38911;SDS011;28444;48.056;14.408;2023-05-20T15:05:43;15.70;;;11.63;;
38911;SDS011;28444;48.056;14.408;2023-05-20T15:08:30;14.70;;;11.18;;
38911;SDS011;28444;48.056;14.408;2023-05-20T15:11:17;15.10;;;10.52;;
38911;SDS011;28444;48.056;14.408;2023-05-20T15:14:04;17.13;;;11.38;;
38911;SDS011;28444;48.056;14.408;2023-05-20T15:16:51;16.52;;;11.68;;
38911;SDS011;28444;48.056;14.408;2023-05-20T15:19:38;16.42;;;11.35;;
38911;SDS011;28444;48.056;14.408;2023-05-20T15:22:27;17.60;;;11.02;;
38911;SDS011;28444;48.056;14.408;2023-05-20T15:25:14;13.90;;;10.70;;
38911;SDS011;28444;48.056;14.408;2023-05-20T15:28:01;14.20;;;10.85;;
38911;SDS011;28444;48.056;14.408;2023-05-20T15:30:50;16.60;;;11.90;;
38911;SDS011;28444;48.056;14.408;2023-05-20T15:33:39;15.55;;;10.70;;
38911;SDS011;28444;48.056;14.408;2023-05-20T15:36:26;17.13;;;11.43;;
38911;SDS011;28444;48.056;14.408;2023-05-20T15:39:13;15.73;;;11.75;;
38911;SDS011;28444;48.056;14.408;2023-05-20T15:42:00;21.27;;;12.98;;
38911;SDS011;28444;48.056;14.408;2023-05-20T15:44:48;17.00;;;11.95;;
38911;SDS011;28444;48.056;14.408;2023-05-20T15:47:35;15.80;;;12.10;;
38911;SDS011;28444;48.056;14.408;2023-05-20T15:50:26;21.02;;;12.07;;
38911;SDS011;28444;48.056;14.408;2023-05-20T15:53:13;15.68;;;11.98;;
38911;SDS011;28444;48.056;14.408;2023-05-20T15:56:01;15.55;;;11.52;;
38911;SDS011;28444;48.056;14.408;2023-05-20T15:58:47;16.65;;;11.80;;
38911;SDS011;28444;48.056;14.408;2023-05-20T16:01:34;22.00;;;13.27;;
38911;SDS011;28444;48.056;14.408;2023-05-20T16:04:23;14.65;;;11.23;;
38911;SDS011;28444;48.056;14.408;2023-05-20T16:07:10;16.10;;;11.93;;
38911;SDS011;28444;48.056;14.408;2023-05-20T16:09:57;21.08;;;10.73;;
38911;SDS011;28444;48.056;14.408;2023-05-20T16:12:44;16.45;;;11.55;;
38911;SDS011;28444;48.056;14.408;2023-05-20T16:15:31;13.75;;;11.57;;
38911;SDS011;28444;48.056;14.408;2023-05-20T16:18:25;16.48;;;10.65;;
38911;SDS011;28444;48.056;14.408;2023-05-20T16:21:14;20.92;;;10.85;;
38911;SDS011;28444;48.056;14.408;2023-05-20T16:24:01;17.33;;;11.02;;
38911;SDS011;28444;48.056;14.408;2023-05-20T16:26:47;18.75;;;10.95;;